Halsey, Nebraska
Current Conditions -  °F | °C
As of 2:15 AM on Thursday 29 Jan 2015 (Local Time) from KTIF Reporting Station
Overcast Overcast  
Wind Chill: -5°   Ceiling: 2200
Heat Index:   Visibility: 10mi
Dew Point: -2°   Wind: 24mph
Humidity: 73%   Direction: 340°NNW
Pressure: 30.29"   Gusts: 30mph
Location:  41.9°N, 100.27°W
Report Text: KTIF 290815Z AUTO 34021G26KT 10SM OVC022 02/M02 A3029 RMK AO2 T00201023
Loading
Personal Weather Stations






























Interactive Weather Map New forecast layout! Learn more

10-Day Weather Forecast

Advertisements
Track Severe Weather on mobile